Kelly, Kansas
Current Conditions -  °F | °C
As of 5:53 AM on Friday 24 Oct 2014 (Local Time) from KFNB Reporting Station
Haze Haze  
Wind Chill: 15°   Ceiling: Unl
Heat Index: 15°   Visibility: 4mi
Dew Point: 14°   Wind: 6mph
Humidity: 93%   Direction: 190°S
Pressure: 30.01"   Gusts: NA
Location:  39.8497°N, 96.0411°W
Report Text: KFNB 241053Z AUTO 19005KT 4SM BR SCT004 15/14 A3001 RMK AO2 SLP156 T01500139
Loading
Personal Weather Stations






























Interactive Weather Map
Tropical Storm Tracking
New forecast layout! Learn more

10-Day Weather Forecast

Advertisements
Track Severe Weather on mobile